| time (UTC) | temp F | wind direction | speed MPH | gust MPH | rain 1hr in | rain 24hr in | rain mn in | humidity % | barometer mb |
| 20260509011555 | 60 | 233 | 0.0 | 0.0 | 0.00 | 0.00 | 0.00 | 62 | 1006.1 |
| 20260509010113 | 62 | 232 | 0.0 | 1.0 | 0.00 | 0.00 | 0.00 | 60 | 1005.9 |
| 20260509004528 | 63 | 232 | 0.0 | 1.0 | 0.00 | 0.00 | 0.00 | 57 | 1005.8 |
| 20260509003041 | 63 | 224 | 0.0 | 2.0 | 0.00 | 0.00 | 0.00 | 56 | 1005.9 |
| 20260509001505 | 64 | 219 | 0.0 | 2.0 | 0.00 | 0.00 | 0.00 | 57 | 1006.0 |
| 20260509000122 | 65 | 216 | 0.0 | 3.0 | 0.00 | 0.00 | 0.00 | 55 | 1006.1 |
| 20260508234527 | 65 | 212 | 0.0 | 3.0 | 0.00 | 0.00 | 0.00 | 53 | 1006.2 |
| 20260508233045 | 65 | 223 | 0.0 | 1.0 | 0.00 | 0.00 | 0.00 | 54 | 1006.3 |
| 20260508231509 | 66 | 220 | 0.0 | 1.0 | 0.00 | 0.00 | 0.00 | 52 | 1006.3 |
| 20260508230009 | 66 | 203 | 0.0 | 2.0 | 0.00 | 0.00 | 0.00 | 48 | 1006.3 |
| 20260508224516 | 68 | 216 | 0.0 | 5.0 | 0.00 | 0.00 | 0.00 | 45 | 1006.3 |
| 20260508223046 | 68 | 236 | 0.0 | 3.0 | 0.00 | 0.00 | 0.00 | 41 | 1006.4 |
| 20260508221553 | 68 | 243 | 0.0 | 1.0 | 0.00 | 0.00 | 0.00 | 48 | 1006.4 |
| 20260508220118 | 68 | 203 | 0.0 | 4.0 | 0.00 | 0.00 | 0.00 | 41 | 1006.5 |
| 20260508214511 | 70 | 229 | 0.0 | 4.0 | 0.00 | 0.00 | 0.00 | 42 | 1006.5 |
| 20260508213031 | 69 | 220 | 1.0 | 5.0 | 0.00 | 0.00 | 0.00 | 43 | 1006.7 |
| 20260508211555 | 69 | 218 | 0.0 | 4.0 | 0.00 | 0.00 | 0.00 | 43 | 1006.8 |
| 20260508210113 | 70 | 241 | 0.0 | 5.0 | 0.00 | 0.00 | 0.00 | 41 | 1006.9 |
| 20260508204508 | 70 | 238 | 1.0 | 5.0 | 0.00 | 0.00 | 0.00 | 43 | 1007.0 |
| 20260508203025 | 67 | 108 | 0.0 | 6.0 | 0.00 | 0.00 | 0.00 | 48 | 1007.3 |
| 20260508201535 | 67 | 190 | 0.0 | 3.0 | 0.00 | 0.00 | 0.00 | 45 | 1007.5 |
| 20260508200054 | 68 | 269 | 0.0 | 3.0 | 0.00 | 0.00 | 0.00 | 46 | 1007.8 |
| 20260508194549 | 70 | 206 | 1.0 | 4.0 | 0.00 | 0.00 | 0.00 | 44 | 1007.9 |
| 20260508193007 | 70 | 236 | 0.0 | 5.0 | 0.00 | 0.00 | 0.00 | 44 | 1008.1 |
| 20260508191529 | 68 | 217 | 0.0 | 4.0 | 0.00 | 0.00 | 0.00 | 52 | 1008.2 |
| 20260508190037 | 68 | 152 | 0.0 | 4.0 | 0.00 | 0.00 | 0.00 | 49 | 1008.5 |
| 20260508184541 | 69 | 224 | 0.0 | 9.0 | 0.00 | 0.00 | 0.00 | 47 | 1008.6 |
| 20260508183114 | 68 | 274 | 1.0 | 5.0 | 0.00 | 0.00 | 0.00 | 50 | 1008.7 |
| 20260508183001 | 68 | 212 | 2.0 | 5.0 | 0.00 | 0.00 | 0.00 | 48 | 1008.8 |
| 20260508181521 | 66 | 204 | 0.0 | 3.0 | 0.00 | 0.00 | 0.00 | 53 | 1009.0 |
| 20260508180005 | 67 | 222 | 1.0 | 4.0 | 0.00 | 0.00 | 0.00 | 51 | 1009.2 |
| 20260508174543 | 67 | 119 | 2.0 | 5.0 | 0.00 | 0.00 | 0.00 | 52 | 1009.5 |
| 20260508173059 | 67 | 56 | 0.0 | 2.0 | 0.00 | 0.00 | 0.00 | 45 | 1009.7 |
| 20260508173007 | 67 | 251 | 0.0 | 2.0 | 0.00 | 0.00 | 0.00 | 44 | 1009.8 |
| 20260508171525 | 66 | 205 | 1.0 | 6.0 | 0.00 | 0.00 | 0.00 | 54 | 1010.0 |
| 20260508170050 | 67 | 213 | 0.0 | 7.0 | 0.00 | 0.00 | 0.00 | 57 | 1010.2 |
| 20260508164546 | 66 | 254 | 1.0 | 3.0 | 0.00 | 0.00 | 0.00 | 60 | 1010.4 |
| 20260508163047 | 64 | 85 | 0.0 | 4.0 | 0.00 | 0.00 | 0.00 | 62 | 1010.7 |
| 20260508161511 | 63 | 243 | 0.0 | 4.0 | 0.00 | 0.00 | 0.00 | 61 | 1010.9 |
| 20260508160005 | 63 | 220 | 0.0 | 5.0 | 0.00 | 0.00 | 0.00 | 57 | 1011.0 |
| 20260508154523 | 62 | 46 | 2.0 | 5.0 | 0.00 | 0.00 | 0.00 | 58 | 1011.0 |
| 20260508153048 | 62 | 231 | 0.0 | 3.0 | 0.00 | 0.00 | 0.00 | 62 | 1011.2 |
| 20260508151553 | 60 | 158 | 0.0 | 4.0 | 0.00 | 0.00 | 0.00 | 63 | 1011.5 |
| 20260508151501 | 60 | 212 | 0.0 | 4.0 | 0.00 | 0.00 | 0.00 | 63 | 1011.4 |
| 20260508150110 | 60 | 232 | 1.0 | 5.0 | 0.00 | 0.00 | 0.00 | 62 | 1011.4 |
| 20260508144508 | 58 | 103 | 0.0 | 2.0 | 0.00 | 0.00 | 0.00 | 65 | 1011.5 |
| 20260508143027 | 57 | 174 | 0.0 | 1.0 | 0.00 | 0.00 | 0.00 | 63 | 1011.7 |
| 20260508141553 | 55 | 122 | 0.0 | 5.0 | 0.00 | 0.00 | 0.00 | 67 | 1011.8 |
| 20260508134555 | 54 | 238 | 0.0 | 1.0 | 0.00 | 0.00 | 0.00 | 78 | 1011.9 |
| 20260508133015 | 51 | 210 | 0.0 | 3.0 | 0.00 | 0.00 | 0.00 | 80 | 1011.8 |
| 20260508131525 | 50 | 122 | 0.0 | 3.0 | 0.00 | 0.00 | 0.00 | 83 | 1011.8 |
| 20260508130042 | 49 | 114 | 0.0 | 3.0 | 0.00 | 0.00 | 0.00 | 85 | 1011.7 |
| 20260508124537 | 48 | 129 | 0.0 | 2.0 | 0.00 | 0.00 | 0.00 | 85 | 1011.9 |
| 20260508123043 | 46 | 141 | 0.0 | 1.0 | 0.00 | 0.00 | 0.00 | 89 | 1011.8 |
| 20260508121507 | 45 | 144 | 0.0 | 1.0 | 0.00 | 0.00 | 0.00 | 90 | 1011.9 |
| 20260508120129 | 44 | 136 | 0.0 | 1.0 | 0.00 | 0.00 | 0.00 | 92 | 1011.9 |
| 20260508114526 | 43 | 136 | 0.0 | 1.0 | 0.00 | 0.00 | 0.00 | 92 | 1011.7 |
| 20260508113106 | 42 | 136 | 0.0 | 1.0 | 0.00 | 0.00 | 0.00 | 93 | 1011.8 |
| 20260508111518 | 42 | 145 | 0.0 | 1.0 | 0.00 | 0.00 | 0.00 | 93 | 1011.6 |
| 20260508110019 | 40 | 278 | 0.0 | 0.0 | 0.00 | 0.00 | 0.00 | 92 | 1011.4 |
| 20260508104533 | 40 | 278 | 0.0 | 0.0 | 0.00 | 0.00 | 0.00 | 92 | 1011.5 |
| 20260508103108 | 40 | 279 | 0.0 | 0.0 | 0.00 | 0.00 | 0.00 | 91 | 1011.5 |
| 20260508101515 | 40 | 279 | 0.0 | 0.0 | 0.00 | 0.00 | 0.00 | 91 | 1011.7 |
| 20260508100037 | 40 | 279 | 0.0 | 0.0 | 0.00 | 0.00 | 0.00 | 91 | 1011.8 |
| 20260508094526 | 40 | 279 | 0.0 | 0.0 | 0.00 | 0.00 | 0.00 | 89 | 1011.7 |
| 20260508093045 | 40 | 279 | 0.0 | 0.0 | 0.00 | 0.00 | 0.00 | 88 | 1011.8 |
| 20260508091514 | 40 | 279 | 0.0 | 0.0 | 0.00 | 0.00 | 0.00 | 85 | 1012.0 |
| 20260508090035 | 40 | 278 | 0.0 | 0.0 | 0.00 | 0.00 | 0.00 | 82 | 1012.0 |
| 20260508084531 | 41 | 278 | 0.0 | 0.0 | 0.00 | 0.00 | 0.00 | 81 | 1012.1 |
| 20260508083048 | 42 | 279 | 0.0 | 0.0 | 0.00 | 0.00 | 0.00 | 79 | 1012.1 |
| 20260508081508 | 42 | 279 | 0.0 | 1.0 | 0.00 | 0.00 | 0.00 | 78 | 1012.3 |
| 20260508080001 | 43 | 279 | 0.0 | 1.0 | 0.00 | 0.00 | 0.00 | 77 | 1012.3 |
| 20260508074528 | 43 | 279 | 0.0 | 0.0 | 0.00 | 0.00 | 0.00 | 76 | 1012.4 |
| 20260508073051 | 43 | 279 | 0.0 | 0.0 | 0.00 | 0.00 | 0.00 | 78 | 1012.5 |
| 20260508071519 | 42 | 279 | 0.0 | 1.0 | 0.00 | 0.00 | 0.00 | 80 | 1012.7 |
| 20260508070007 | 43 | 271 | 0.0 | 0.0 | 0.00 | 0.00 | 0.00 | 80 | 1012.8 |
| 20260508064535 | 44 | 271 | 0.0 | 0.0 | 0.00 | 0.00 | 0.00 | 76 | 1012.8 |
| 20260508063102 | 43 | 270 | 0.0 | 0.0 | 0.00 | 0.00 | 0.00 | 76 | 1012.7 |
| 20260508061512 | 43 | 270 | 0.0 | 0.0 | 0.00 | 0.00 | 0.00 | 78 | 1012.8 |
| 20260508060006 | 45 | 270 | 0.0 | 0.0 | 0.00 | 0.00 | 0.00 | 74 | 1012.7 |
| 20260508054529 | 46 | 270 | 0.0 | 0.0 | 0.00 | 0.00 | 0.00 | 72 | 1012.5 |
| 20260508053102 | 45 | 271 | 0.0 | 0.0 | 0.00 | 0.00 | 0.00 | 75 | 1012.5 |
| 20260508051518 | 45 | 270 | 0.0 | 0.0 | 0.00 | 0.00 | 0.00 | 76 | 1012.4 |
| 20260508050011 | 44 | 270 | 0.0 | 0.0 | 0.00 | 0.00 | 0.00 | 76 | 1012.4 |
| 20260508044523 | 45 | 270 | 0.0 | 0.0 | 0.00 | 0.00 | 0.00 | 74 | 1012.4 |
| 20260508043056 | 45 | 270 | 0.0 | 0.0 | 0.00 | 0.00 | 0.00 | 74 | 1012.3 |
| 20260508041511 | 44 | 271 | 0.0 | 0.0 | 0.00 | 0.00 | 0.00 | 77 | 1012.2 |
| 20260508040005 | 45 | 270 | 0.0 | 0.0 | 0.00 | 0.00 | 0.00 | 77 | 1012.2 |
| 20260508034532 | 46 | 261 | 0.0 | 1.0 | 0.00 | 0.00 | 0.00 | 76 | 1011.9 |
| 20260508033050 | 47 | 261 | 0.0 | 0.0 | 0.00 | 0.00 | 0.00 | 74 | 1011.7 |
| 20260508031523 | 46 | 261 | 0.0 | 0.0 | 0.00 | 0.00 | 0.00 | 76 | 1011.7 |
| 20260508030021 | 46 | 261 | 0.0 | 0.0 | 0.00 | 0.00 | 0.00 | 76 | 1011.7 |
| 20260508024544 | 46 | 261 | 0.0 | 0.0 | 0.00 | 0.00 | 0.00 | 74 | 1011.5 |
| 20260508023011 | 47 | 260 | 0.0 | 0.0 | 0.00 | 0.00 | 0.00 | 72 | 1011.3 |
| 20260508021540 | 48 | 261 | 0.0 | 0.0 | 0.00 | 0.00 | 0.00 | 71 | 1011.3 |
| 20260508020104 | 49 | 261 | 0.0 | 0.0 | 0.00 | 0.00 | 0.00 | 70 | 1011.2 |
| 20260508014547 | 50 | 260 | 0.0 | 0.0 | 0.00 | 0.00 | 0.00 | 70 | 1010.9 |
| 20260508013014 | 50 | 261 | 0.0 | 0.0 | 0.00 | 0.00 | 0.00 | 70 | 1010.7 |